CheckWX is a tool to help pilots better visualize weather data.  It is not intended as a substitute for an official pre-flight weather briefing.

09:49:19 UTC

KERI METAR
Erie International / Tom Ridge Field Airport
Erie, Pennsylvania, USA
Current

58 mins ago

KERI 200851Z AUTO 06007KT 10SM CLR M04/M09 A3042 RMK AO2 SLP311 T10391094 58021 TSNO
Observed
Feb-20 @ 08:51 UTC
Wind
  • 060° at 7 KTS
Visibility
16,093 meters
Flight Rules
VFR
Cloud Levels
  • Clear skies
Temperature
-4°C / 25°F
Dewpoint
-9°C / 16°F
Humidity
69%
Altimeter
30.42" Hg
Pressure
1031.1 hPa
Previous

2 hours ago

KERI 200751Z AUTO 12004KT 10SM CLR M04/M11 A3047 RMK AO2 SLP329 T10441106 TSNO
Observed
Feb-20 @ 07:51 UTC
Wind
  • 120° at 4 KTS
Visibility
16,093 meters
Flight Rules
VFR
Cloud Levels
  • Clear skies
Temperature
-4°C / 25°F
Dewpoint
-11°C / 12°F
Humidity
59%
Altimeter
30.47" Hg
Pressure
1032.9 hPa
Previous

3 hours ago

KERI 200651Z AUTO 00000KT 10SM CLR M06/M09 A3047 RMK AO2 SLP331 T10561094 TSNO
Observed
Feb-20 @ 06:51 UTC
Visibility
16,093 meters
Flight Rules
VFR
Cloud Levels
  • Clear skies
Temperature
-6°C / 21°F
Dewpoint
-9°C / 16°F
Humidity
80%
Altimeter
30.47" Hg
Pressure
1033.1 hPa